Aviation Digital Data Service (ADDS)

Output produced by METARs form (0558 UTC 24 May 2017)
found at http://aviationweather.gov/adds/metars/
 
KERI 240524Z 2406/2506 15005KT P6SM OVC150 
     FM241200 14010KT P6SM BKN070 
     FM241800 10010G20KT P6SM BKN050 
     FM250000 10015G25KT P6SM -SHRA OVC035